CWGZ

Grise Fiord Airport

Canada

CWGZ 191400Z 08004KT 020V150 30SM FEW085 M06/M11 A3022 RMK AC1 SLP239

Observed Flight Rules
Sep-19 @ 14:00 UTC (an hour ago)
 
Visual Flight Rules
Wind Visibility Clouds
80° at 4 knots 30 miles
  • Few at 8,500' AGL
Temperatures Readings
Current -6°C / 21°F
Dewpoint -11°C / 12°F
Humidity 68%
Altimeter 30.22" Hg
Pressure 1023.9 hPa
Elevation 45
Observed Flight Rules
Sep-19 @ 14:00 UTC
(an hour ago)
 
VFR
Wind Visibility
80° at 4 knots 30 miles
Clouds
  • Few at 8,500' AGL
Temperature Dewpoint
-6°C / 21°F -11°C / 12°F
Humidity Altimeter Pressure
68% 30.22" Hg 1023.9 hPa